createdAt,value
2018-08-16T00:00:46.750Z,2.10
2018-08-16T00:03:15.205Z,2.02
2018-08-16T00:05:43.655Z,1.90
2018-08-16T00:08:12.076Z,2.00
2018-08-16T00:10:40.589Z,1.70
2018-08-16T00:13:09.109Z,1.92
2018-08-16T00:15:37.571Z,2.35
2018-08-16T00:18:06.267Z,1.87
2018-08-16T00:20:34.721Z,2.30
2018-08-16T00:23:03.176Z,2.02
2018-08-16T00:25:31.646Z,1.77
2018-08-16T00:28:00.101Z,1.95
2018-08-16T00:30:28.580Z,1.52
2018-08-16T00:32:57.055Z,1.87
2018-08-16T00:35:25.517Z,1.75
2018-08-16T00:37:53.972Z,1.82
2018-08-16T00:40:22.465Z,2.08
2018-08-16T00:42:50.904Z,2.25
2018-08-16T00:45:19.416Z,1.60
2018-08-16T00:47:47.871Z,1.87
2018-08-16T00:50:16.684Z,2.08
2018-08-16T00:52:45.153Z,2.02
2018-08-16T00:55:14.576Z,1.82
2018-08-16T00:57:43.004Z,1.70
2018-08-16T01:00:15.415Z,2.30
2018-08-16T01:02:44.167Z,1.90
2018-08-16T01:05:13.072Z,1.90
2018-08-16T01:07:41.847Z,1.70
2018-08-16T01:10:11.888Z,1.80
2018-08-16T01:12:40.957Z,1.77
2018-08-16T01:15:11.115Z,1.57
2018-08-16T01:17:40.376Z,1.65
2018-08-16T01:20:09.381Z,1.90
2018-08-16T01:22:37.916Z,1.70
2018-08-16T01:25:07.102Z,2.05
2018-08-16T01:27:35.957Z,2.05
2018-08-16T01:30:05.665Z,2.12
2018-08-16T01:32:34.188Z,1.98
2018-08-16T01:35:02.605Z,1.80
2018-08-16T01:37:31.100Z,1.70
2018-08-16T01:39:59.541Z,1.90
2018-08-16T01:42:27.995Z,1.80
2018-08-16T01:44:56.432Z,1.45
2018-08-16T01:47:25.112Z,1.70
2018-08-16T01:49:53.550Z,1.77
2018-08-16T01:52:22.016Z,1.92
2018-08-16T01:54:50.457Z,2.08
2018-08-16T01:57:18.897Z,1.35
2018-08-16T01:59:47.317Z,2.10
2018-08-16T02:02:15.828Z,1.60
2018-08-16T02:04:44.258Z,1.70
2018-08-16T02:07:12.777Z,2.15
2018-08-16T02:09:41.203Z,2.10
2018-08-16T02:12:09.665Z,2.30
2018-08-16T02:14:38.094Z,2.00
2018-08-16T02:17:06.566Z,1.87
2018-08-16T02:19:34.989Z,1.70
2018-08-16T02:22:03.644Z,2.20
2018-08-16T02:24:32.064Z,2.05
2018-08-16T02:27:00.973Z,1.77
2018-08-16T02:29:29.416Z,1.87
2018-08-16T02:31:57.889Z,1.87
2018-08-16T02:34:26.332Z,1.85
2018-08-16T02:36:54.800Z,1.77
2018-08-16T02:39:23.270Z,2.33
2018-08-16T02:41:51.726Z,2.17
2018-08-16T02:44:20.145Z,1.85
2018-08-16T02:46:48.588Z,1.72
2018-08-16T02:49:17.023Z,2.12
2018-08-16T02:51:45.473Z,1.87
2018-08-16T02:54:13.905Z,1.80
2018-08-16T02:56:42.374Z,1.70
2018-08-16T02:59:10.787Z,1.95
2018-08-16T03:01:39.233Z,1.95
2018-08-16T03:04:07.749Z,2.00
2018-08-16T03:06:36.208Z,2.02
2018-08-16T03:09:07.580Z,2.08
2018-08-16T03:11:36.080Z,2.10
2018-08-16T03:14:04.589Z,2.20
2018-08-16T03:16:33.061Z,1.30
2018-08-16T03:19:01.537Z,1.87
2018-08-16T03:21:29.660Z,2.12
2018-08-16T03:23:58.126Z,1.50
2018-08-16T03:26:26.538Z,1.82
2018-08-16T03:28:54.993Z,1.65
2018-08-16T03:31:23.417Z,2.15
2018-08-16T03:33:51.884Z,2.20
2018-08-16T03:36:20.555Z,1.62
2018-08-16T03:38:49.061Z,1.72
2018-08-16T03:41:17.559Z,1.55
2018-08-16T03:43:45.988Z,1.42
2018-08-16T03:46:14.424Z,1.57
2018-08-16T03:48:42.894Z,1.90
2018-08-16T03:51:11.337Z,1.87
2018-08-16T03:53:39.779Z,1.75
2018-08-16T03:56:08.256Z,1.98
2018-08-16T03:58:36.740Z,1.32
2018-08-16T04:01:05.219Z,1.75
2018-08-16T04:03:33.661Z,1.85
2018-08-16T04:06:02.062Z,1.98
2018-08-16T04:08:30.530Z,1.77
2018-08-16T04:10:59.129Z,1.77
2018-08-16T04:13:27.572Z,1.67
2018-08-16T04:15:55.996Z,1.65
2018-08-16T04:18:24.428Z,2.02
2018-08-16T04:20:52.838Z,1.77
2018-08-16T04:23:21.269Z,1.65
2018-08-16T04:25:49.678Z,1.67
2018-08-16T04:28:18.140Z,1.60
2018-08-16T04:30:46.573Z,1.80
2018-08-16T04:33:15.004Z,2.02
2018-08-16T04:35:43.416Z,1.60
2018-08-16T04:38:11.848Z,1.80
2018-08-16T04:40:40.266Z,2.05
2018-08-16T04:43:08.729Z,1.98
2018-08-16T04:45:37.169Z,1.57
2018-08-16T04:48:06.153Z,1.50
2018-08-16T04:50:34.604Z,2.00
2018-08-16T04:53:03.157Z,1.80
2018-08-16T04:55:31.629Z,2.05
2018-08-16T04:58:00.048Z,1.65
2018-08-16T05:00:28.509Z,1.52
2018-08-16T05:02:56.933Z,1.47
2018-08-16T05:05:25.420Z,1.62
2018-08-16T05:07:53.856Z,1.62
2018-08-16T05:10:22.285Z,1.45
2018-08-16T05:12:50.689Z,1.22
2018-08-16T05:15:19.137Z,1.60
2018-08-16T05:17:47.550Z,2.08
2018-08-16T05:20:16.028Z,1.65
2018-08-16T05:22:44.481Z,1.87
2018-08-16T05:25:12.957Z,2.08
2018-08-16T05:27:41.473Z,1.60
2018-08-16T05:30:12.003Z,1.75
2018-08-16T05:32:40.669Z,1.50
2018-08-16T05:35:09.456Z,1.80
2018-08-16T05:37:38.624Z,1.35
2018-08-16T05:40:08.464Z,1.47
2018-08-16T05:42:37.441Z,1.60
2018-08-16T05:45:06.153Z,1.40
2018-08-16T05:47:34.508Z,1.75
2018-08-16T05:50:03.086Z,1.65
2018-08-16T05:52:31.520Z,1.20
2018-08-16T05:54:59.969Z,1.30
2018-08-16T05:57:28.392Z,1.47
2018-08-16T05:59:56.862Z,1.70
2018-08-16T06:02:25.889Z,1.57
2018-08-16T06:04:54.331Z,1.50
2018-08-16T06:07:22.782Z,1.82
2018-08-16T06:09:51.236Z,2.10
2018-08-16T06:12:19.677Z,1.95
2018-08-16T06:14:48.173Z,1.62
2018-08-16T06:17:16.669Z,1.80
2018-08-16T06:19:45.451Z,1.60
2018-08-16T06:22:13.884Z,1.55
2018-08-16T06:24:42.329Z,1.80
2018-08-16T06:27:11.007Z,1.20
2018-08-16T06:29:39.493Z,1.62
2018-08-16T06:32:08.006Z,1.75
2018-08-16T06:34:36.454Z,1.62
2018-08-16T06:37:05.000Z,1.55
2018-08-16T06:39:33.487Z,1.27
2018-08-16T06:42:01.957Z,1.15
2018-08-16T06:44:30.430Z,1.50
2018-08-16T06:46:58.970Z,1.40
2018-08-16T06:49:27.444Z,1.50
2018-08-16T06:51:55.895Z,1.45
2018-08-16T06:54:24.352Z,1.72
2018-08-16T06:56:52.812Z,1.70
2018-08-16T06:59:21.260Z,1.95
2018-08-16T07:01:49.704Z,1.67
2018-08-16T07:04:18.112Z,1.52
2018-08-16T07:06:46.603Z,1.40
2018-08-16T07:09:15.068Z,1.02
2018-08-16T07:11:43.585Z,0.82
2018-08-16T07:14:12.054Z,0.82
2018-08-16T07:16:40.540Z,1.00
2018-08-16T07:19:09.013Z,1.10
2018-08-16T07:21:37.465Z,0.82
2018-08-16T07:24:05.573Z,0.90
2018-08-16T07:26:34.033Z,0.80
2018-08-16T07:29:02.469Z,1.00
2018-08-16T07:31:30.924Z,1.02
2018-08-16T07:33:59.341Z,0.90
2018-08-16T07:36:27.776Z,1.10
2018-08-16T07:38:56.216Z,1.10
2018-08-16T07:41:24.697Z,1.00
2018-08-16T07:43:53.147Z,0.90
2018-08-16T07:46:21.928Z,1.12
2018-08-16T07:48:50.313Z,1.70
2018-08-16T07:51:18.937Z,1.20
2018-08-16T07:53:47.313Z,1.32
2018-08-16T07:56:15.846Z,1.20
2018-08-16T07:58:44.285Z,1.25
2018-08-16T08:01:12.773Z,1.30
2018-08-16T08:03:41.294Z,1.22
2018-08-16T08:06:09.762Z,0.88
2018-08-16T08:08:38.209Z,1.20
2018-08-16T08:11:06.696Z,0.85
2018-08-16T08:13:35.163Z,0.90
2018-08-16T08:16:03.771Z,0.90
2018-08-16T08:18:32.516Z,1.00
2018-08-16T08:21:01.065Z,0.72
2018-08-16T08:23:29.525Z,1.15
2018-08-16T08:25:58.016Z,0.80
2018-08-16T08:28:26.435Z,1.02
2018-08-16T08:30:54.928Z,0.93
2018-08-16T08:33:23.449Z,1.20
2018-08-16T08:36:03.534Z,0.90
2018-08-16T08:38:31.994Z,0.93
2018-08-16T08:41:00.376Z,0.88
2018-08-16T08:43:40.139Z,0.98
2018-08-16T08:46:08.633Z,1.00
2018-08-16T08:48:37.055Z,0.88
2018-08-16T08:51:05.596Z,0.93
2018-08-16T08:54:53.062Z,1.00
2018-08-16T08:57:33.453Z,0.80
2018-08-16T09:00:02.098Z,0.80
2018-08-16T09:02:30.780Z,1.00
2018-08-16T09:04:59.233Z,0.82
2018-08-16T09:07:27.667Z,0.90
2018-08-16T09:11:09.976Z,1.07
2018-08-16T09:13:50.424Z,0.88
2018-08-16T09:16:20.127Z,0.70
2018-08-16T09:18:48.638Z,0.95
2018-08-16T09:21:17.473Z,0.70
2018-08-16T09:23:46.039Z,1.00
2018-08-16T09:26:19.778Z,0.80
2018-08-16T09:28:47.933Z,0.85
2018-08-16T09:31:22.296Z,0.70
2018-08-16T09:34:01.897Z,0.90
2018-08-16T09:36:30.432Z,0.75
2018-08-16T09:38:59.161Z,0.82
2018-08-16T09:41:28.216Z,0.80
2018-08-16T09:43:56.674Z,1.05
2018-08-16T09:47:05.133Z,0.90
2018-08-16T09:49:34.875Z,0.80
2018-08-16T09:52:03.600Z,0.70
2018-08-16T09:54:31.750Z,0.80
2018-08-16T09:57:01.377Z,0.90
2018-08-16T09:59:29.878Z,0.80
2018-08-16T10:01:58.403Z,0.90
2018-08-16T10:04:27.229Z,1.12
2018-08-16T10:06:55.717Z,0.80
2018-08-16T10:09:25.361Z,0.80
2018-08-16T10:11:54.408Z,0.80
2018-08-16T10:14:22.852Z,0.80
2018-08-16T10:16:51.313Z,0.93
2018-08-16T10:19:20.061Z,0.90
2018-08-16T10:21:48.469Z,0.70
2018-08-16T10:24:16.905Z,0.70
2018-08-16T10:26:45.357Z,0.80
2018-08-16T10:29:13.980Z,0.60
2018-08-16T10:31:42.490Z,0.72
2018-08-16T10:34:10.914Z,0.95
2018-08-16T10:36:39.400Z,0.80
2018-08-16T10:39:10.559Z,0.80
2018-08-16T10:41:39.050Z,0.80
2018-08-16T10:44:07.631Z,0.80
2018-08-16T10:46:36.065Z,0.90
2018-08-16T10:49:04.643Z,0.80
2018-08-16T10:51:33.173Z,1.15
2018-08-16T10:54:01.324Z,0.88
2018-08-16T10:56:29.886Z,0.90
2018-08-16T10:58:58.403Z,0.90
2018-08-16T11:01:26.539Z,1.00
2018-08-16T11:03:55.029Z,0.90
2018-08-16T11:06:23.152Z,0.90
2018-08-16T11:08:51.605Z,0.75
2018-08-16T11:11:20.109Z,0.90
2018-08-16T11:13:48.592Z,0.90
2018-08-16T11:16:17.036Z,1.00
2018-08-16T11:18:45.516Z,1.10
2018-08-16T11:21:14.048Z,1.20
2018-08-16T11:23:42.450Z,1.10
2018-08-16T11:26:10.929Z,0.90
2018-08-16T11:28:39.347Z,1.52
2018-08-16T11:31:07.468Z,0.90
2018-08-16T11:33:36.069Z,1.07
2018-08-16T11:36:04.547Z,1.07
2018-08-16T11:38:32.989Z,1.00
2018-08-16T11:41:01.413Z,0.85
2018-08-16T11:43:29.814Z,1.20
2018-08-16T11:45:58.269Z,0.80
2018-08-16T11:48:26.668Z,1.30
2018-08-16T11:50:55.149Z,1.10
2018-08-16T11:53:23.566Z,0.98
2018-08-16T11:55:52.021Z,0.90
2018-08-16T11:58:20.479Z,1.10
2018-08-16T12:00:48.958Z,1.05
2018-08-16T12:03:17.358Z,0.98
2018-08-16T12:05:45.781Z,1.00
2018-08-16T12:08:14.265Z,1.15
2018-08-16T12:10:42.707Z,1.17
2018-08-16T12:13:11.109Z,0.90
2018-08-16T12:15:39.567Z,1.10
2018-08-16T12:18:07.970Z,1.20
2018-08-16T12:20:36.519Z,0.82
2018-08-16T12:23:04.978Z,0.82
2018-08-16T12:25:33.432Z,1.00
2018-08-16T12:28:01.872Z,0.70
2018-08-16T12:30:30.299Z,0.80
2018-08-16T12:32:58.720Z,0.82
2018-08-16T12:35:27.164Z,0.80
2018-08-16T12:37:55.651Z,0.90
2018-08-16T12:40:24.069Z,0.80
2018-08-16T12:43:24.173Z,0.90
2018-08-16T12:45:52.612Z,0.80
2018-08-16T12:48:21.026Z,0.80
2018-08-16T12:50:49.596Z,0.80
2018-08-16T12:53:17.997Z,0.68
2018-08-16T12:55:46.425Z,0.90
2018-08-16T12:58:14.826Z,0.90
2018-08-16T13:00:43.274Z,0.80
2018-08-16T13:03:11.675Z,0.82
2018-08-16T13:05:40.141Z,0.68
2018-08-16T13:08:08.567Z,0.78
2018-08-16T13:10:37.067Z,0.78
2018-08-16T13:13:05.684Z,1.02
2018-08-16T13:15:34.161Z,0.70
2018-08-16T13:18:02.584Z,0.80
2018-08-16T13:20:31.012Z,1.15
2018-08-16T13:22:59.469Z,0.80
2018-08-16T13:25:27.893Z,0.70
2018-08-16T13:27:56.364Z,0.70
2018-08-16T13:30:24.805Z,0.80
2018-08-16T13:32:53.260Z,0.60
2018-08-16T13:35:21.681Z,0.42
2018-08-16T13:37:50.128Z,0.90
2018-08-16T13:40:18.605Z,0.80
2018-08-16T13:42:47.069Z,0.80
2018-08-16T13:45:15.617Z,0.62
2018-08-16T13:47:44.109Z,0.70
2018-08-16T13:50:12.541Z,0.60
2018-08-16T13:52:41.020Z,0.70
2018-08-16T13:55:09.483Z,0.50
2018-08-16T13:57:37.968Z,0.65
2018-08-16T14:00:06.676Z,0.68
2018-08-16T14:02:35.191Z,0.78
2018-08-16T14:05:03.322Z,0.88
2018-08-16T14:07:31.748Z,0.80
2018-08-16T14:10:00.186Z,0.70
2018-08-16T14:12:28.652Z,0.85
2018-08-16T14:14:57.168Z,0.62
2018-08-16T14:17:25.632Z,0.80
2018-08-16T14:19:54.055Z,0.68
2018-08-16T14:22:22.572Z,0.72
2018-08-16T14:24:51.052Z,0.68
2018-08-16T14:27:19.498Z,0.70
2018-08-16T14:29:47.911Z,0.80
2018-08-16T14:32:16.365Z,0.50
2018-08-16T14:34:44.803Z,0.80
2018-08-16T14:37:13.273Z,0.93
2018-08-16T14:39:41.781Z,0.80
2018-08-16T14:42:10.260Z,0.82
2018-08-16T14:44:38.663Z,0.70
2018-08-16T14:47:07.485Z,0.70
2018-08-16T14:49:35.933Z,0.70
2018-08-16T14:52:04.516Z,0.70
2018-08-16T14:54:32.946Z,0.70
2018-08-16T14:57:01.385Z,0.80
2018-08-16T14:59:29.848Z,0.60
2018-08-16T15:01:58.359Z,0.85
2018-08-16T15:04:26.532Z,0.70
2018-08-16T15:06:55.001Z,0.62
2018-08-16T15:09:23.436Z,0.70
2018-08-16T15:11:51.935Z,0.62
2018-08-16T15:14:20.421Z,0.42
2018-08-16T15:16:48.817Z,0.82
2018-08-16T15:19:17.297Z,0.90
2018-08-16T15:21:45.391Z,0.70
2018-08-16T15:24:16.646Z,0.70
2018-08-16T15:26:45.162Z,0.60
2018-08-16T15:29:13.635Z,0.60
2018-08-16T15:31:42.154Z,0.80
2018-08-16T15:34:10.284Z,0.70
2018-08-16T15:36:38.789Z,0.80
2018-08-16T15:39:08.326Z,0.90
2018-08-16T15:41:36.984Z,0.70
2018-08-16T15:44:05.520Z,0.62
2018-08-16T15:46:33.990Z,1.77
2018-08-16T15:49:02.459Z,0.75
2018-08-16T15:51:30.969Z,0.80
2018-08-16T15:53:59.423Z,0.70
2018-08-16T15:56:27.861Z,0.62
2018-08-16T15:58:56.341Z,0.90
2018-08-16T16:01:24.764Z,0.78
2018-08-16T16:03:53.553Z,0.70
2018-08-16T16:06:22.117Z,0.70
2018-08-16T16:08:50.594Z,0.50
2018-08-16T16:11:19.092Z,0.70
2018-08-16T16:13:47.519Z,0.70
2018-08-16T16:16:15.930Z,0.62
2018-08-16T16:18:44.380Z,0.68
2018-08-16T16:21:12.809Z,0.60
2018-08-16T16:23:41.296Z,0.80
2018-08-16T16:26:09.688Z,0.70
2018-08-16T16:28:38.157Z,0.70
2018-08-16T16:31:06.585Z,0.68
2018-08-16T16:33:35.028Z,0.70
2018-08-16T16:36:03.517Z,0.60
2018-08-16T16:38:31.999Z,0.60
2018-08-16T16:41:00.455Z,0.60
2018-08-16T16:43:28.973Z,0.90
2018-08-16T16:45:57.400Z,0.68
2018-08-16T16:48:25.853Z,0.60
2018-08-16T16:50:54.347Z,0.75
2018-08-16T16:53:22.824Z,0.60
2018-08-16T16:55:51.313Z,0.70
2018-08-16T16:58:19.727Z,0.70
2018-08-16T17:00:48.240Z,0.60
2018-08-16T17:03:16.717Z,0.50
2018-08-16T17:05:45.308Z,0.70
2018-08-16T17:08:13.793Z,0.65
2018-08-16T17:10:42.272Z,0.60
2018-08-16T17:13:10.712Z,0.60
2018-08-16T17:15:40.155Z,0.60
2018-08-16T17:18:08.641Z,0.57
2018-08-16T17:20:37.092Z,0.65
2018-08-16T17:23:05.180Z,0.68
2018-08-16T17:25:33.625Z,0.53
2018-08-16T17:28:02.134Z,0.78
2018-08-16T17:30:30.563Z,0.70
2018-08-16T17:32:58.960Z,0.70
2018-08-16T17:35:27.404Z,0.50
2018-08-16T17:37:55.877Z,0.62
2018-08-16T17:40:24.340Z,0.60
2018-08-16T17:42:52.773Z,0.70
2018-08-16T17:45:21.260Z,0.80
2018-08-16T17:47:49.682Z,0.60
2018-08-16T17:50:17.848Z,0.65
2018-08-16T17:52:45.960Z,0.75
2018-08-16T17:55:14.478Z,0.70
2018-08-16T17:57:42.928Z,0.70
2018-08-16T18:00:12.087Z,0.60
2018-08-16T18:02:40.744Z,0.68
2018-08-16T18:05:09.240Z,0.55
2018-08-16T18:07:37.669Z,0.70
2018-08-16T18:10:06.634Z,0.70
2018-08-16T18:12:35.125Z,0.70
2018-08-16T18:15:03.638Z,0.85
2018-08-16T18:17:32.063Z,0.70
2018-08-16T18:20:00.512Z,0.90
2018-08-16T18:22:28.933Z,0.88
2018-08-16T18:24:57.383Z,0.80
2018-08-16T18:27:25.799Z,0.55
2018-08-16T18:29:54.324Z,0.80
2018-08-16T18:32:22.765Z,0.78
2018-08-16T18:34:51.229Z,0.90
2018-08-16T18:37:19.639Z,0.90
2018-08-16T18:39:48.044Z,1.20
2018-08-16T18:42:16.529Z,1.15
2018-08-16T18:44:45.073Z,1.30
2018-08-16T18:47:13.308Z,1.47
2018-08-16T18:50:12.661Z,1.30
2018-08-16T18:52:41.289Z,1.45
2018-08-16T18:55:09.765Z,1.55
2018-08-16T18:57:38.200Z,1.65
2018-08-16T19:00:07.693Z,1.42
2018-08-16T19:02:36.182Z,1.90
2018-08-16T19:05:05.149Z,2.00
2018-08-16T19:07:33.684Z,1.70
2018-08-16T19:10:02.610Z,1.60
2018-08-16T19:12:31.044Z,1.98
2018-08-16T19:14:59.468Z,1.80
2018-08-16T19:17:28.125Z,1.77
2018-08-16T19:19:56.520Z,1.70
2018-08-16T19:22:24.658Z,1.45
2018-08-16T19:24:53.056Z,2.40
2018-08-16T19:27:21.489Z,2.05
2018-08-16T19:29:49.928Z,2.12
2018-08-16T19:32:18.354Z,2.08
2018-08-16T19:34:46.834Z,1.80
2018-08-16T19:37:15.288Z,1.80
2018-08-16T19:39:43.900Z,2.17
2018-08-16T19:42:12.325Z,1.98
2018-08-16T19:44:41.093Z,2.22
2018-08-16T19:47:09.829Z,2.10
2018-08-16T19:49:38.347Z,2.10
2018-08-16T19:52:06.970Z,2.15
2018-08-16T19:54:35.401Z,2.00
2018-08-16T19:57:03.969Z,1.90
2018-08-16T19:59:32.502Z,1.90
2018-08-16T20:02:00.996Z,1.70
2018-08-16T20:04:29.558Z,2.10
2018-08-16T20:06:58.074Z,2.05
2018-08-16T20:09:26.505Z,2.20
2018-08-16T20:11:54.948Z,2.62
2018-08-16T20:14:23.400Z,3.67
2018-08-16T20:16:51.845Z,2.12
2018-08-16T20:19:20.305Z,3.55
2018-08-16T20:21:48.809Z,3.33
2018-08-16T20:24:17.310Z,4.53
2018-08-16T20:26:45.794Z,4.12
2018-08-16T20:29:14.239Z,3.00
2018-08-16T20:31:42.697Z,3.42
2018-08-16T20:34:10.799Z,2.05
2018-08-16T20:36:39.432Z,2.50
2018-08-16T20:39:08.693Z,2.55
2018-08-16T20:41:37.169Z,2.00
2018-08-16T20:44:05.694Z,1.80
2018-08-16T20:46:34.149Z,1.90
2018-08-16T20:49:02.658Z,1.82
2018-08-16T20:51:31.146Z,1.82
2018-08-16T20:53:59.600Z,2.30
2018-08-16T20:56:28.006Z,2.37
2018-08-16T20:58:56.494Z,2.50
2018-08-16T21:01:24.912Z,2.67
2018-08-16T21:03:53.513Z,2.55
2018-08-16T21:06:21.938Z,2.20
2018-08-16T21:08:50.465Z,2.50
2018-08-16T21:11:18.988Z,2.35
2018-08-16T21:13:47.471Z,2.00
2018-08-16T21:16:15.890Z,2.00
2018-08-16T21:18:44.521Z,2.17
2018-08-16T21:21:12.928Z,2.25
2018-08-16T21:23:41.406Z,2.42
2018-08-16T21:26:09.822Z,1.70
2018-08-16T21:28:38.536Z,2.00
2018-08-16T21:31:07.172Z,1.98
2018-08-16T21:33:35.617Z,2.25
2018-08-16T21:36:04.008Z,2.12
2018-08-16T21:38:33.033Z,3.30
2018-08-16T21:41:01.477Z,2.42
2018-08-16T21:43:29.952Z,2.30
2018-08-16T21:45:58.413Z,1.95
2018-08-16T21:48:27.084Z,2.00
2018-08-16T21:50:55.523Z,2.20
2018-08-16T21:53:23.955Z,1.67
2018-08-16T21:55:52.350Z,1.98
2018-08-16T21:58:20.981Z,2.10
2018-08-16T22:00:52.518Z,1.90
2018-08-16T22:03:22.166Z,1.90
2018-08-16T22:06:07.088Z,2.40
2018-08-16T22:08:49.101Z,1.95
2018-08-16T22:11:17.880Z,1.87
2018-08-16T22:13:46.332Z,1.90
2018-08-16T22:16:14.804Z,2.12
2018-08-16T22:18:43.294Z,2.40
2018-08-16T22:21:12.081Z,2.75
2018-08-16T22:23:40.538Z,2.60
2018-08-16T22:26:09.000Z,2.27
2018-08-16T22:28:37.405Z,2.70
2018-08-16T22:31:06.064Z,2.45
2018-08-16T22:33:34.543Z,2.42
2018-08-16T22:36:02.960Z,2.25
2018-08-16T22:38:31.380Z,2.40
2018-08-16T22:40:59.802Z,1.90
2018-08-16T22:43:28.238Z,2.35
2018-08-16T22:45:56.670Z,2.30
2018-08-16T22:48:25.292Z,2.02
2018-08-16T22:50:53.776Z,2.12
2018-08-16T22:53:22.187Z,2.10
2018-08-16T22:55:50.680Z,1.92
2018-08-16T22:58:19.100Z,2.22
2018-08-16T23:00:47.571Z,2.20
2018-08-16T23:03:16.000Z,2.12
2018-08-16T23:05:44.433Z,2.20
2018-08-16T23:08:12.827Z,2.37
2018-08-16T23:10:41.288Z,2.22
2018-08-16T23:13:09.901Z,2.30
2018-08-16T23:15:38.376Z,2.50
2018-08-16T23:18:06.840Z,2.10
2018-08-16T23:20:35.279Z,1.80
2018-08-16T23:23:03.708Z,2.17
2018-08-16T23:25:32.180Z,1.95
2018-08-16T23:28:00.601Z,2.20
2018-08-16T23:30:29.048Z,1.80
2018-08-16T23:32:57.475Z,1.75
2018-08-16T23:35:25.945Z,1.77
2018-08-16T23:37:54.428Z,2.15
2018-08-16T23:40:22.901Z,2.20
2018-08-16T23:42:52.325Z,2.12
2018-08-16T23:45:20.761Z,2.92
2018-08-16T23:48:00.494Z,2.40
2018-08-16T23:50:28.998Z,2.50
2018-08-16T23:52:57.409Z,2.50
2018-08-16T23:55:25.937Z,2.42
2018-08-16T23:57:54.360Z,2.00
